KBRG/BRG METAR and TAF weather

Enter ICAO airport designator
Station Type Date Time Source
KBRG METAR 2020/04/08 21:35 UTC NOAA

KBRG 082135Z AUTO 09006KT 10SM CLR 23/M06 A3007 RMK AO2 T02261057


Station Type Date Time Source
KBRG Decoded METAR 2020/04/08 21:35 UTC NOAA

Station name not available
Apr 08, 2020 - 05:35 PM EDT / 2020.04.08 2135 UTC
Wind: from the E (090 degrees) at 7 MPH (6 KT):0
Visibility: 10 mile(s):0
Sky conditions: clear
Temperature: 72.7 F (22.6 C)
Dew Point: 21.7 F (-5.7 C)
Relative Humidity: 14%
Pressure (altimeter): 30.07 in. Hg (1018 hPa)
ob: KBRG 082135Z AUTO 09006KT 10SM CLR 23/M06 A3007 RMK AO2 T02261057
cycle: 21

Station Type Date Time Source
KBRG TAF 2012/07/03 12:12 UTC NOAA

TAF SKBRG 031000Z 031212 VRB02KT 9999 FEW017 SCT080
TEMPO 0312/0317 11005KT VCTS - DZRAFEW015CB BKN070
TEMPO 0318/0323 TSRA FEW017CB BKN070
TEMPO 0400/0402 VCTS FEW020CB
TEMPO 0402/0406 -DZ SCT015CB
TEMPO 0408/0412 00000KT 5000 BCFG FEW005 TX23/0319Z TN10/0411Z

Example: see airport list